Time;durP1;ratioP1;P1;durP2;ratioP2;P2;SDS_P1;SDS_P2;PMS_P1;PMS_P2;Temp;Humidity;BMP_temperature;BMP_pressure;BME280_temperature;BME280_humidity;BME280_pressure;Samples;Min_cycle;Max_cycle;Signal;HPM_P1;HPM_P2
2022/08/10 00:01:12;;;;;;;6.47;3.70;;;;;;;;;;5031259;28;20462;-65
2022/08/10 00:03:38;;;;;;;5.22;3.97;;;;;;;;;;5031873;28;20044;-65
2022/08/10 00:06:04;;;;;;;5.47;3.95;;;;;;;;;;5032352;28;20069;-65
2022/08/10 00:08:30;;;;;;;5.82;3.80;;;;;;;;;;5030915;28;20491;-65
2022/08/10 00:10:57;;;;;;;4.20;3.80;;;;;;;;;;5030217;28;20040;-65
2022/08/10 00:13:24;;;;;;;5.60;4.45;;;;;;;;;;5014673;28;20183;-65
2022/08/10 00:15:51;;;;;;;4.88;3.85;;;;;;;;;;5030784;28;20394;-65
2022/08/10 00:18:17;;;;;;;6.90;4.50;;;;;;;;;;5014439;28;20052;-67
2022/08/10 00:20:43;;;;;;;4.60;4.00;;;;;;;;;;5031687;28;20049;-66
2022/08/10 00:23:09;;;;;;;5.22;4.63;;;;;;;;;;5030905;28;20144;-66
2022/08/10 00:25:35;;;;;;;7.68;4.72;;;;;;;;;;5023971;28;20041;-67
2022/08/10 00:28:01;;;;;;;6.07;4.32;;;;;;;;;;5031738;28;20059;-66
2022/08/10 00:30:27;;;;;;;7.53;4.53;;;;;;;;;;5030115;28;20080;-67
2022/08/10 00:32:53;;;;;;;7.35;4.60;;;;;;;;;;5031903;28;20033;-67
2022/08/10 00:35:19;;;;;;;5.75;4.47;;;;;;;;;;5011557;28;20038;-66
2022/08/10 00:37:45;;;;;;;7.90;4.85;;;;;;;;;;5029139;28;20042;-67
2022/08/10 00:40:12;;;;;;;5.80;4.43;;;;;;;;;;5031286;28;20044;-66
2022/08/10 00:42:38;;;;;;;5.82;4.43;;;;;;;;;;5031171;28;20095;-66
2022/08/10 00:45:04;;;;;;;7.47;4.88;;;;;;;;;;5030483;28;20033;-67
2022/08/10 00:47:30;;;;;;;7.38;4.93;;;;;;;;;;5031548;28;20044;-67
2022/08/10 00:49:56;;;;;;;9.48;4.85;;;;;;;;;;5031460;28;20049;-66
2022/08/10 00:52:24;;;;;;;7.82;5.57;;;;;;;;;;5030218;28;20029;-67
2022/08/10 00:54:50;;;;;;;7.40;5.43;;;;;;;;;;5031502;28;20056;-67
2022/08/10 00:57:16;;;;;;;6.32;4.70;;;;;;;;;;5031078;28;20045;-66
2022/08/10 00:59:42;;;;;;;8.25;5.50;;;;;;;;;;5029036;28;20047;-66
2022/08/10 01:02:08;;;;;;;8.85;5.18;;;;;;;;;;5029857;28;20441;-66
2022/08/10 01:04:34;;;;;;;6.95;5.38;;;;;;;;;;5030130;28;20056;-66
2022/08/10 01:07:16;;;;;;;7.63;5.80;;;;;;;;;;5030899;28;20037;-66
2022/08/10 01:09:51;;;;;;;8.30;5.60;;;;;;;;;;5025014;28;20051;-66
2022/08/10 01:12:32;;;;;;;7.00;5.65;;;;;;;;;;5031398;28;20305;-67
2022/08/10 01:15:14;;;;;;;8.65;5.65;;;;;;;;;;5026909;28;20029;-66
2022/08/10 01:17:59;;;;;;;8.00;5.63;;;;;;;;;;5028605;28;20041;-67
2022/08/10 01:20:43;;;;;;;6.50;5.05;;;;;;;;;;5029823;28;20068;-66
2022/08/10 01:23:12;;;;;;;7.68;5.45;;;;;;;;;;5030184;28;20040;-66
2022/08/10 01:25:38;;;;;;;6.50;5.22;;;;;;;;;;5029725;28;20037;-66
2022/08/10 01:28:17;;;;;;;7.70;5.40;;;;;;;;;;5030767;28;20056;-67
2022/08/10 01:30:45;;;;;;;9.02;5.70;;;;;;;;;;5025563;28;20038;-66
2022/08/10 01:33:20;;;;;;;7.07;4.97;;;;;;;;;;5027251;28;20455;-66
2022/08/10 01:35:52;;;;;;;10.00;5.60;;;;;;;;;;5029057;28;20069;-67
2022/08/10 01:38:33;;;;;;;8.45;5.65;;;;;;;;;;5031531;28;20051;-67
2022/08/10 01:41:05;;;;;;;9.68;5.85;;;;;;;;;;5030453;28;20068;-67
2022/08/10 01:43:32;;;;;;;9.95;6.07;;;;;;;;;;5030062;28;20049;-66
2022/08/10 01:45:59;;;;;;;9.32;6.10;;;;;;;;;;5031073;28;20037;-67
2022/08/10 01:48:27;;;;;;;9.52;6.22;;;;;;;;;;5028534;28;20041;-67
2022/08/10 01:50:55;;;;;;;9.98;6.43;;;;;;;;;;5028361;28;20499;-67
2022/08/10 01:53:27;;;;;;;10.25;7.07;;;;;;;;;;5028340;28;20033;-66
2022/08/10 01:55:54;;;;;;;8.57;6.28;;;;;;;;;;5029903;28;20848;-66
2022/08/10 01:58:20;;;;;;;10.95;6.85;;;;;;;;;;5029862;28;20152;-67
2022/08/10 02:00:48;;;;;;;10.75;7.07;;;;;;;;;;5027701;28;20407;-66
2022/08/10 02:03:15;;;;;;;11.77;7.35;;;;;;;;;;5031195;28;20038;-66
2022/08/10 02:05:43;;;;;;;10.88;6.80;;;;;;;;;;5025887;28;20072;-67
2022/08/10 02:08:11;;;;;;;11.85;7.13;;;;;;;;;;5030798;28;20045;-67
2022/08/10 02:10:38;;;;;;;10.68;7.13;;;;;;;;;;5025568;28;20030;-66
2022/08/10 02:13:05;;;;;;;11.02;7.40;;;;;;;;;;5030643;28;20367;-66
2022/08/10 02:15:32;;;;;;;10.82;7.60;;;;;;;;;;5031176;28;20034;-67
2022/08/10 02:17:59;;;;;;;11.20;8.25;;;;;;;;;;5029172;28;20507;-66
2022/08/10 02:20:27;;;;;;;11.32;7.95;;;;;;;;;;5028164;28;20076;-66
2022/08/10 02:22:59;;;;;;;13.95;8.40;;;;;;;;;;5029423;28;20029;-67
2022/08/10 02:25:26;;;;;;;12.30;7.55;;;;;;;;;;5027613;28;20088;-67
2022/08/10 02:27:53;;;;;;;10.63;8.07;;;;;;;;;;5012953;28;20037;-66
2022/08/10 02:30:19;;;;;;;12.70;8.35;;;;;;;;;;5029977;28;20440;-66
2022/08/10 02:32:46;;;;;;;13.98;8.55;;;;;;;;;;5010423;28;20395;-66
2022/08/10 02:35:13;;;;;;;13.20;8.27;;;;;;;;;;5027785;28;20414;-67
2022/08/10 02:37:41;;;;;;;12.50;7.85;;;;;;;;;;5030384;28;20117;-66
2022/08/10 02:40:08;;;;;;;14.10;8.75;;;;;;;;;;5024292;28;20042;-66
2022/08/10 02:42:39;;;;;;;12.85;8.10;;;;;;;;;;5030310;28;20037;-67
2022/08/10 02:45:10;;;;;;;14.63;8.30;;;;;;;;;;5029982;28;20487;-67
2022/08/10 02:47:36;;;;;;;12.73;8.40;;;;;;;;;;5018708;28;20046;-66
2022/08/10 02:50:05;;;;;;;13.10;8.88;;;;;;;;;;5025837;28;20516;-67
2022/08/10 02:52:38;;;;;;;13.95;8.90;;;;;;;;;;5027256;28;20044;-66
2022/08/10 02:55:14;;;;;;;13.90;8.60;;;;;;;;;;5027718;28;20037;-67
2022/08/10 02:57:43;;;;;;;14.63;8.95;;;;;;;;;;5027699;28;20038;-67
2022/08/10 03:00:10;;;;;;;12.88;8.55;;;;;;;;;;5029048;28;20510;-66
2022/08/10 03:02:37;;;;;;;13.93;8.30;;;;;;;;;;5032990;28;20045;-67
2022/08/10 03:05:08;;;;;;;14.02;9.27;;;;;;;;;;5032361;28;20065;-67
2022/08/10 03:07:46;;;;;;;12.93;8.77;;;;;;;;;;5033041;28;20153;-66
2022/08/10 03:10:18;;;;;;;13.07;8.80;;;;;;;;;;5029284;28;20049;-66
2022/08/10 03:12:45;;;;;;;12.75;8.52;;;;;;;;;;5063845;22;20047;-60
2022/08/10 03:15:12;;;;;;;13.70;8.60;;;;;;;;;;5052224;28;20056;-60
2022/08/10 03:17:39;;;;;;;13.75;8.90;;;;;;;;;;5052888;28;20500;-60
2022/08/10 03:20:06;;;;;;;13.95;9.15;;;;;;;;;;5034857;28;20049;-60
2022/08/10 03:22:32;;;;;;;15.55;9.02;;;;;;;;;;5041869;28;20432;-60
2022/08/10 03:24:59;;;;;;;15.15;10.02;;;;;;;;;;5031877;28;20045;-60
2022/08/10 03:27:25;;;;;;;15.48;9.63;;;;;;;;;;5031302;28;20044;-60
2022/08/10 03:29:51;;;;;;;14.00;8.85;;;;;;;;;;5035458;28;20096;-60
2022/08/10 03:32:19;;;;;;;14.35;9.27;;;;;;;;;;5033607;28;20048;-60
2022/08/10 03:34:45;;;;;;;16.35;9.52;;;;;;;;;;5030923;28;20150;-61
2022/08/10 03:37:11;;;;;;;12.48;8.95;;;;;;;;;;5033397;28;20045;-62
2022/08/10 03:39:37;;;;;;;13.43;8.43;;;;;;;;;;5032146;28;20044;-62
2022/08/10 03:42:04;;;;;;;14.65;9.20;;;;;;;;;;5032890;28;20479;-61
2022/08/10 03:44:32;;;;;;;14.63;9.55;;;;;;;;;;5033131;28;20128;-61
2022/08/10 03:46:59;;;;;;;14.52;9.50;;;;;;;;;;5013605;28;20045;-62
2022/08/10 03:49:26;;;;;;;15.10;9.77;;;;;;;;;;5032394;28;20084;-62
2022/08/10 03:51:53;;;;;;;15.48;10.00;;;;;;;;;;5033132;28;20051;-62
2022/08/10 03:54:19;;;;;;;16.10;9.20;;;;;;;;;;5032787;28;20040;-62
2022/08/10 03:56:45;;;;;;;12.65;8.80;;;;;;;;;;5032816;28;20038;-61
2022/08/10 03:59:13;;;;;;;14.55;9.05;;;;;;;;;;5032031;28;20056;-62
2022/08/10 04:01:40;;;;;;;14.52;9.07;;;;;;;;;;5029216;28;20037;-62
2022/08/10 04:04:06;;;;;;;12.23;9.00;;;;;;;;;;5029575;28;20427;-62
2022/08/10 04:06:32;;;;;;;14.75;9.32;;;;;;;;;;5031190;28;20041;-62
2022/08/10 04:08:58;;;;;;;15.82;9.63;;;;;;;;;;5031187;28;20037;-62
2022/08/10 04:11:24;;;;;;;13.23;9.23;;;;;;;;;;5032447;28;20033;-62
2022/08/10 04:13:50;;;;;;;14.60;9.63;;;;;;;;;;5031773;28;20092;-62
2022/08/10 04:16:16;;;;;;;15.05;9.82;;;;;;;;;;5032163;28;20033;-61
2022/08/10 04:18:42;;;;;;;15.15;9.75;;;;;;;;;;5029410;28;20037;-62
2022/08/10 04:21:10;;;;;;;14.65;9.43;;;;;;;;;;5032849;28;20030;-62
2022/08/10 04:23:40;;;;;;;16.23;10.32;;;;;;;;;;5030336;28;20037;-62
2022/08/10 04:26:06;;;;;;;14.63;9.93;;;;;;;;;;5033356;28;20384;-62
2022/08/10 04:28:32;;;;;;;16.88;9.98;;;;;;;;;;5032657;28;20049;-62
2022/08/10 04:31:00;;;;;;;15.80;9.90;;;;;;;;;;5030098;28;20064;-62
2022/08/10 04:33:28;;;;;;;15.15;10.05;;;;;;;;;;4991578;28;20041;-61
2022/08/10 04:35:55;;;;;;;16.27;10.30;;;;;;;;;;5003606;28;20049;-62
2022/08/10 04:38:23;;;;;;;15.63;9.73;;;;;;;;;;5023287;28;20084;-62
2022/08/10 04:40:49;;;;;;;16.75;10.07;;;;;;;;;;5029235;28;20041;-62
2022/08/10 04:43:15;;;;;;;16.73;10.65;;;;;;;;;;5030114;28;20092;-63
2022/08/10 04:45:41;;;;;;;15.65;9.95;;;;;;;;;;5025295;28;20619;-62
2022/08/10 04:48:07;;;;;;;15.07;10.18;;;;;;;;;;5031806;28;20049;-62
2022/08/10 04:50:33;;;;;;;18.35;10.23;;;;;;;;;;5029575;28;20041;-62
2022/08/10 04:52:59;;;;;;;17.65;9.80;;;;;;;;;;5031793;28;20033;-62
2022/08/10 04:55:25;;;;;;;16.63;9.85;;;;;;;;;;5030661;28;20045;-62
2022/08/10 04:57:51;;;;;;;15.82;10.07;;;;;;;;;;5031566;28;20091;-62
2022/08/10 05:00:18;;;;;;;18.15;9.98;;;;;;;;;;5031101;28;20037;-62
2022/08/10 05:02:45;;;;;;;18.08;10.68;;;;;;;;;;5030148;28;20557;-62
2022/08/10 05:05:11;;;;;;;13.90;10.25;;;;;;;;;;5027701;28;20041;-62
2022/08/10 05:07:37;;;;;;;18.48;10.35;;;;;;;;;;5031098;28;20565;-62
2022/08/10 05:10:03;;;;;;;18.00;10.27;;;;;;;;;;5029274;28;20487;-62
2022/08/10 05:12:30;;;;;;;16.20;10.60;;;;;;;;;;5031092;28;20491;-63
2022/08/10 05:14:56;;;;;;;19.30;10.25;;;;;;;;;;5029660;28;20072;-62
2022/08/10 05:17:22;;;;;;;16.92;10.73;;;;;;;;;;5032064;28;20108;-62
2022/08/10 05:19:48;;;;;;;16.27;10.57;;;;;;;;;;5029788;28;20041;-62
2022/08/10 05:22:14;;;;;;;18.90;11.32;;;;;;;;;;5029087;28;20034;-62
2022/08/10 05:24:40;;;;;;;17.58;10.68;;;;;;;;;;5030477;28;20178;-62
2022/08/10 05:27:07;;;;;;;18.52;11.30;;;;;;;;;;5029216;28;20038;-63
2022/08/10 05:29:33;;;;;;;17.83;10.90;;;;;;;;;;5028254;28;20107;-62
2022/08/10 05:31:59;;;;;;;18.95;10.88;;;;;;;;;;5012142;28;20045;-62
2022/08/10 05:34:27;;;;;;;16.08;10.18;;;;;;;;;;5025182;28;20056;-62
2022/08/10 05:36:54;;;;;;;17.42;10.05;;;;;;;;;;5029547;28;20092;-63
2022/08/10 05:39:22;;;;;;;18.92;11.05;;;;;;;;;;5027167;28;20049;-62
2022/08/10 05:41:50;;;;;;;17.08;10.50;;;;;;;;;;5030974;28;20522;-62
2022/08/10 05:44:16;;;;;;;18.88;10.65;;;;;;;;;;5023233;28;20124;-62
2022/08/10 05:46:42;;;;;;;18.60;10.32;;;;;;;;;;5024338;28;20044;-63
2022/08/10 05:49:08;;;;;;;18.30;10.57;;;;;;;;;;5028360;28;20045;-62
2022/08/10 05:51:35;;;;;;;17.80;10.68;;;;;;;;;;5026832;28;20403;-62
2022/08/10 05:54:01;;;;;;;16.65;10.48;;;;;;;;;;5025506;28;20068;-62
2022/08/10 05:56:27;;;;;;;16.05;10.25;;;;;;;;;;5028921;28;20124;-63
2022/08/10 05:58:54;;;;;;;19.10;9.85;;;;;;;;;;5027838;28;20603;-62
2022/08/10 06:01:22;;;;;;;18.67;10.38;;;;;;;;;;5029009;28;20423;-62
2022/08/10 06:03:52;;;;;;;17.48;9.35;;;;;;;;;;5029277;28;20380;-62
2022/08/10 06:06:19;;;;;;;17.77;10.07;;;;;;;;;;5010877;28;20103;-63
2022/08/10 06:08:45;;;;;;;15.63;9.63;;;;;;;;;;5027114;28;20049;-63
2022/08/10 06:11:13;;;;;;;15.90;9.98;;;;;;;;;;5028949;28;20037;-63
2022/08/10 06:16:27;;;;;;;15.60;9.82;;;;;;;;;;5024727;28;20037;-63
2022/08/10 06:18:53;;;;;;;13.68;9.25;;;;;;;;;;5022651;28;20075;-63
2022/08/10 06:21:20;;;;;;;15.82;9.57;;;;;;;;;;5023733;28;20056;-63
2022/08/10 06:23:46;;;;;;;13.07;9.23;;;;;;;;;;5025144;28;20044;-63
2022/08/10 06:26:12;;;;;;;14.68;9.10;;;;;;;;;;5015333;28;20049;-63
2022/08/10 06:28:40;;;;;;;14.88;8.55;;;;;;;;;;5007717;28;20088;-63
2022/08/10 06:31:07;;;;;;;15.32;8.15;;;;;;;;;;5005404;28;20132;-63
2022/08/10 06:33:34;;;;;;;11.73;8.23;;;;;;;;;;5010745;28;20188;-63
2022/08/10 06:36:01;;;;;;;11.70;7.70;;;;;;;;;;5009732;28;20038;-63
2022/08/10 06:38:29;;;;;;;14.07;7.53;;;;;;;;;;5028220;28;20782;-63
2022/08/10 06:40:57;;;;;;;17.23;8.77;;;;;;;;;;5011395;28;20045;-63
2022/08/10 06:43:24;;;;;;;14.00;7.78;;;;;;;;;;5031487;28;20124;-63
2022/08/10 06:45:52;;;;;;;13.02;7.55;;;;;;;;;;5032165;28;20084;-63
2022/08/10 06:48:26;;;;;;;12.90;7.45;;;;;;;;;;5027178;28;20128;-62
2022/08/10 06:51:03;;;;;;;10.20;7.40;;;;;;;;;;5010119;28;20147;-62
2022/08/10 06:53:37;;;;;;;11.82;7.63;;;;;;;;;;5029008;28;21545;-62
2022/08/10 06:56:09;;;;;;;12.45;7.22;;;;;;;;;;5029171;28;20034;-62
2022/08/10 06:58:37;;;;;;;10.40;7.18;;;;;;;;;;5023010;28;20374;-62
2022/08/10 07:01:06;;;;;;;9.45;7.00;;;;;;;;;;5028973;28;20407;-63
2022/08/10 07:03:36;;;;;;;9.32;6.78;;;;;;;;;;5027009;28;20041;-62
2022/08/10 07:06:04;;;;;;;10.75;7.35;;;;;;;;;;5030337;28;20106;-63
2022/08/10 07:08:32;;;;;;;10.40;7.25;;;;;;;;;;5023680;28;20049;-62
2022/08/10 07:10:58;;;;;;;9.65;6.70;;;;;;;;;;5030783;28;20033;-62
2022/08/10 07:13:26;;;;;;;10.10;7.10;;;;;;;;;;5028861;28;20034;-63
2022/08/10 07:15:52;;;;;;;12.88;6.60;;;;;;;;;;5030854;28;20159;-63
2022/08/10 07:18:18;;;;;;;9.35;6.38;;;;;;;;;;5010049;28;20047;-63
2022/08/10 07:20:45;;;;;;;10.52;6.40;;;;;;;;;;5030157;28;20060;-63
2022/08/10 07:23:12;;;;;;;9.40;6.50;;;;;;;;;;5031026;28;20045;-63
2022/08/10 07:25:41;;;;;;;10.55;6.15;;;;;;;;;;5030334;28;20037;-63
2022/08/10 07:28:07;;;;;;;8.70;5.95;;;;;;;;;;5031031;28;20065;-63
2022/08/10 07:30:36;;;;;;;7.43;5.72;;;;;;;;;;5031745;28;20390;-63
2022/08/10 07:33:04;;;;;;;9.25;5.45;;;;;;;;;;5033848;28;20037;-63
2022/08/10 07:35:31;;;;;;;10.15;5.78;;;;;;;;;;5014176;28;20045;-63
2022/08/10 07:38:01;;;;;;;9.73;5.97;;;;;;;;;;5032378;28;20084;-62
2022/08/10 07:40:28;;;;;;;8.27;5.18;;;;;;;;;;5033406;28;20041;-63
2022/08/10 07:42:58;;;;;;;7.93;5.15;;;;;;;;;;5027776;28;20042;-63
2022/08/10 07:45:27;;;;;;;6.80;5.15;;;;;;;;;;5032029;28;20049;-63
2022/08/10 07:48:00;;;;;;;8.00;5.43;;;;;;;;;;5031512;28;20131;-63
2022/08/10 07:50:27;;;;;;;8.38;5.03;;;;;;;;;;5032219;28;20106;-63
2022/08/10 07:52:55;;;;;;;7.28;5.35;;;;;;;;;;5031129;28;20124;-63
2022/08/10 07:55:21;;;;;;;6.25;5.25;;;;;;;;;;5031790;28;20041;-63
2022/08/10 07:57:49;;;;;;;8.82;5.10;;;;;;;;;;5028774;28;20419;-63
2022/08/10 08:00:15;;;;;;;5.93;4.55;;;;;;;;;;5026637;28;20560;-62
2022/08/10 08:02:48;;;;;;;9.88;4.85;;;;;;;;;;5032272;28;20088;-63
2022/08/10 08:05:15;;;;;;;7.72;5.00;;;;;;;;;;5038417;28;20037;-63
2022/08/10 08:07:42;;;;;;;7.30;5.60;;;;;;;;;;5033291;28;20073;-63
2022/08/10 08:10:10;;;;;;;8.13;4.70;;;;;;;;;;5014025;28;20038;-63
2022/08/10 08:12:38;;;;;;;7.53;4.80;;;;;;;;;;5024051;28;20461;-63
2022/08/10 08:15:05;;;;;;;7.55;4.95;;;;;;;;;;5032593;28;20048;-63
2022/08/10 08:17:32;;;;;;;6.05;4.70;;;;;;;;;;5033170;28;20030;-63
2022/08/10 08:19:59;;;;;;;8.15;5.15;;;;;;;;;;5033001;28;20041;-63
2022/08/10 08:22:26;;;;;;;6.88;4.72;;;;;;;;;;5026620;28;20052;-63
2022/08/10 08:24:54;;;;;;;7.88;4.60;;;;;;;;;;5028562;28;20495;-63
2022/08/10 08:27:20;;;;;;;5.03;4.38;;;;;;;;;;5024768;28;20036;-63
2022/08/10 08:29:47;;;;;;;6.40;4.03;;;;;;;;;;5014872;28;20092;-63
2022/08/10 08:32:18;;;;;;;6.05;3.85;;;;;;;;;;5031472;28;20025;-63
2022/08/10 08:34:45;;;;;;;5.32;3.80;;;;;;;;;;5032717;28;20132;-63
2022/08/10 08:37:14;;;;;;;4.82;3.97;;;;;;;;;;5028142;28;20445;-63
2022/08/10 08:39:41;;;;;;;7.35;4.43;;;;;;;;;;5031533;28;20045;-63
2022/08/10 08:42:25;;;;;;;8.00;4.30;;;;;;;;;;5032065;28;20049;-63
2022/08/10 08:45:10;;;;;;;5.82;3.85;;;;;;;;;;5032909;28;20034;-63
2022/08/10 08:47:44;;;;;;;7.00;4.55;;;;;;;;;;5023915;28;20503;-63
2022/08/10 08:50:24;;;;;;;6.55;4.10;;;;;;;;;;5028332;28;20037;-63
2022/08/10 08:52:55;;;;;;;11.40;4.28;;;;;;;;;;5031508;28;20044;-63
2022/08/10 08:55:40;;;;;;;8.25;3.90;;;;;;;;;;5031896;28;20091;-63
2022/08/10 08:58:18;;;;;;;5.43;4.18;;;;;;;;;;5032162;28;20033;-63
2022/08/10 09:00:49;;;;;;;6.05;3.40;;;;;;;;;;5031316;28;20040;-61
2022/08/10 09:03:21;;;;;;;6.00;3.25;;;;;;;;;;5032531;28;20081;-60
2022/08/10 09:05:54;;;;;;;6.30;3.50;;;;;;;;;;5029003;28;20041;-60
2022/08/10 09:08:29;;;;;;;5.25;3.30;;;;;;;;;;5032212;28;20176;-60
2022/08/10 09:11:01;;;;;;;4.68;3.03;;;;;;;;;;5031898;28;20041;-61
2022/08/10 09:13:30;;;;;;;5.85;3.00;;;;;;;;;;5059006;22;20067;-63
2022/08/10 09:16:17;;;;;;;6.00;3.03;;;;;;;;;;5050724;28;20160;-63
2022/08/10 09:19:00;;;;;;;5.53;2.80;;;;;;;;;;5052187;28;20119;-63
2022/08/10 09:21:46;;;;;;;5.13;3.17;;;;;;;;;;5048275;28;20048;-62
2022/08/10 09:24:15;;;;;;;5.35;3.40;;;;;;;;;;5032102;28;20120;-62
2022/08/10 09:26:41;;;;;;;7.28;3.58;;;;;;;;;;5030713;28;20080;-62
2022/08/10 09:29:09;;;;;;;5.03;2.72;;;;;;;;;;5031830;28;20050;-63
2022/08/10 09:31:43;;;;;;;2.55;2.17;;;;;;;;;;5023565;28;20120;-63
2022/08/10 09:34:17;;;;;;;3.30;2.45;;;;;;;;;;5031130;28;20125;-63
2022/08/10 09:36:59;;;;;;;3.03;2.15;;;;;;;;;;5024109;28;20061;-63
2022/08/10 09:39:48;;;;;;;9.20;2.47;;;;;;;;;;5031211;28;20079;-63
2022/08/10 09:42:38;;;;;;;3.50;1.92;;;;;;;;;;5028735;28;20033;-63
2022/08/10 09:45:09;;;;;;;5.03;2.13;;;;;;;;;;5031259;28;20041;-62
2022/08/10 09:47:35;;;;;;;;;;;;;;;;;;5031417;28;20080;-63
2022/08/10 09:50:20;;;;;;;3.35;2.20;;;;;;;;;;5030120;28;19964;-63
2022/08/10 09:52:50;;;;;;;4.57;1.83;;;;;;;;;;5014344;28;20037;-63
2022/08/10 09:55:35;;;;;;;2.97;2.03;;;;;;;;;;5029063;28;20049;-62
2022/08/10 09:58:04;;;;;;;5.53;2.38;;;;;;;;;;5026873;28;20041;-62
2022/08/10 10:00:34;;;;;;;5.35;2.20;;;;;;;;;;5013789;28;20728;-62
2022/08/10 10:03:00;;;;;;;4.35;2.10;;;;;;;;;;5030498;28;20546;-62
2022/08/10 10:05:49;;;;;;;2.45;1.98;;;;;;;;;;5029346;28;20152;-62
2022/08/10 10:08:27;;;;;;;2.38;2.10;;;;;;;;;;5017972;28;20041;-62
2022/08/10 10:10:56;;;;;;;3.65;2.22;;;;;;;;;;5031059;28;20395;-62
2022/08/10 10:13:38;;;;;;;5.13;1.98;;;;;;;;;;5031140;28;20120;-62
2022/08/10 10:16:18;;;;;;;4.35;2.00;;;;;;;;;;5024778;28;20128;-62
2022/08/10 10:18:53;;;;;;;2.67;1.80;;;;;;;;;;4990422;28;20565;-62
2022/08/10 10:21:38;;;;;;;3.28;1.70;;;;;;;;;;5013129;28;20076;-62
2022/08/10 10:24:16;;;;;;;5.00;1.85;;;;;;;;;;5031385;28;20068;-62
2022/08/10 10:26:52;;;;;;;2.70;1.60;;;;;;;;;;5019233;28;20037;-62
2022/08/10 10:29:30;;;;;;;3.00;1.55;;;;;;;;;;5021640;28;20503;-62
2022/08/10 10:32:00;;;;;;;3.55;1.60;;;;;;;;;;5025557;28;20029;-63
2022/08/10 10:34:35;;;;;;;2.85;1.65;;;;;;;;;;5009932;28;20041;-63
2022/08/10 10:37:03;;;;;;;3.50;1.60;;;;;;;;;;5006042;28;20048;-63
2022/08/10 10:39:30;;;;;;;5.80;2.25;;;;;;;;;;5026100;28;20665;-63
2022/08/10 10:42:18;;;;;;;3.28;1.70;;;;;;;;;;5026928;28;20034;-63
2022/08/10 10:45:06;;;;;;;3.75;1.63;;;;;;;;;;5026375;28;20040;-63
2022/08/10 10:47:32;;;;;;;2.40;1.60;;;;;;;;;;5024911;28;20041;-63
2022/08/10 10:50:11;;;;;;;3.70;1.30;;;;;;;;;;5025072;28;20057;-63
2022/08/10 10:52:44;;;;;;;3.60;1.67;;;;;;;;;;5019016;28;20045;-63
2022/08/10 10:55:13;;;;;;;2.75;1.30;;;;;;;;;;5028696;28;20044;-63
2022/08/10 10:57:44;;;;;;;2.35;1.65;;;;;;;;;;5027083;28;20037;-63
2022/08/10 11:00:10;;;;;;;;;;;;;;;;;;5028165;28;20041;-63
2022/08/10 11:02:42;;;;;;;2.47;1.40;;;;;;;;;;5006611;28;19917;-62
2022/08/10 11:05:21;;;;;;;2.70;1.20;;;;;;;;;;5027066;28;20057;-62
2022/08/10 11:08:07;;;;;;;2.28;1.55;;;;;;;;;;5023606;28;20042;-63
2022/08/10 11:10:36;;;;;;;3.10;1.40;;;;;;;;;;5029289;28;20511;-62
2022/08/10 11:13:11;;;;;;;3.67;1.42;;;;;;;;;;5029038;28;20041;-63
2022/08/10 11:15:46;;;;;;;2.58;1.25;;;;;;;;;;5021369;28;20048;-62
2022/08/10 11:18:22;;;;;;;1.90;1.48;;;;;;;;;;5009924;28;20120;-63
2022/08/10 11:20:55;;;;;;;4.13;1.60;;;;;;;;;;5011734;28;20048;-63
2022/08/10 11:23:41;;;;;;;2.13;1.60;;;;;;;;;;5030502;28;20042;-63
2022/08/10 11:26:12;;;;;;;3.63;1.70;;;;;;;;;;5027686;28;20034;-63
2022/08/10 11:28:53;;;;;;;3.40;1.42;;;;;;;;;;5021545;28;20128;-63
2022/08/10 11:31:38;;;;;;;2.75;1.20;;;;;;;;;;5029437;28;20045;-64
2022/08/10 11:34:25;;;;;;;1.80;1.48;;;;;;;;;;5028520;28;20047;-63
2022/08/10 11:37:09;;;;;;;2.17;1.30;;;;;;;;;;5031220;28;20037;-63
2022/08/10 11:39:38;;;;;;;3.83;1.60;;;;;;;;;;5026822;28;20048;-63
2022/08/10 11:42:15;;;;;;;1.52;1.38;;;;;;;;;;5031466;28;20047;-63
2022/08/10 11:44:50;;;;;;;2.97;1.40;;;;;;;;;;5024237;28;20441;-63
2022/08/10 11:47:19;;;;;;;3.17;1.52;;;;;;;;;;5030331;28;20054;-63
2022/08/10 11:49:45;;;;;;;2.65;1.27;;;;;;;;;;5030601;28;20041;-63
2022/08/10 11:52:11;;;;;;;3.33;1.42;;;;;;;;;;5028397;28;20041;-63
2022/08/10 11:54:47;;;;;;;2.40;1.42;;;;;;;;;;5031806;28;20398;-64
2022/08/10 11:57:13;;;;;;;2.55;1.17;;;;;;;;;;5030081;28;20041;-63
2022/08/10 11:59:56;;;;;;;1.77;1.40;;;;;;;;;;5033546;28;20398;-64
2022/08/10 12:02:27;;;;;;;4.95;1.40;;;;;;;;;;5030051;28;20045;-64
2022/08/10 12:04:57;;;;;;;2.35;1.48;;;;;;;;;;5029515;28;20048;-64
2022/08/10 12:07:23;;;;;;;7.32;1.75;;;;;;;;;;5032190;28;20037;-63
2022/08/10 12:09:49;;;;;;;2.33;1.13;;;;;;;;;;5032868;28;20037;-63
2022/08/10 12:12:16;;;;;;;2.65;1.40;;;;;;;;;;5031177;28;20033;-64
2022/08/10 12:14:48;;;;;;;2.78;1.65;;;;;;;;;;5025850;28;20042;-64
2022/08/10 12:17:26;;;;;;;2.55;1.40;;;;;;;;;;5031166;28;20155;-62
2022/08/10 12:19:55;;;;;;;1.42;1.25;;;;;;;;;;5032935;28;20518;-63
2022/08/10 12:22:24;;;;;;;2.35;1.40;;;;;;;;;;5033258;28;20037;-64
2022/08/10 12:24:56;;;;;;;3.80;1.60;;;;;;;;;;5030467;28;20037;-64
2022/08/10 12:27:41;;;;;;;4.07;1.20;;;;;;;;;;5030915;28;20037;-63
2022/08/10 12:30:08;;;;;;;4.47;1.35;;;;;;;;;;5032884;28;20045;-63
2022/08/10 12:32:54;;;;;;;2.90;1.27;;;;;;;;;;5013093;28;20130;-63
2022/08/10 12:35:36;;;;;;;2.67;1.13;;;;;;;;;;5030643;28;20038;-64
2022/08/10 12:38:05;;;;;;;5.28;1.30;;;;;;;;;;5031458;28;20588;-63
2022/08/10 12:40:34;;;;;;;3.60;1.38;;;;;;;;;;5011998;28;20049;-62
2022/08/10 12:43:03;;;;;;;2.47;1.42;;;;;;;;;;5014166;28;20057;-63
2022/08/10 12:45:37;;;;;;;2.47;1.20;;;;;;;;;;5027621;28;20049;-63
2022/08/10 12:48:08;;;;;;;4.20;1.30;;;;;;;;;;5029929;28;20093;-63
2022/08/10 12:50:42;;;;;;;2.20;1.42;;;;;;;;;;5031279;28;20046;-63
2022/08/10 12:53:14;;;;;;;3.40;1.30;;;;;;;;;;5031923;28;20034;-63
2022/08/10 12:55:40;;;;;;;2.03;1.50;;;;;;;;;;5021134;28;20041;-63
2022/08/10 12:58:11;;;;;;;5.97;1.60;;;;;;;;;;5025626;28;20033;-63
2022/08/10 13:00:37;;;;;;;2.13;1.30;;;;;;;;;;5030272;28;20045;-64
2022/08/10 13:03:05;;;;;;;3.33;1.52;;;;;;;;;;5031553;28;20547;-63
2022/08/10 13:05:32;;;;;;;2.35;1.35;;;;;;;;;;5028757;28;20042;-63
2022/08/10 13:10:49;;;;;;;4.45;1.40;;;;;;;;;;5029137;28;20049;-63
2022/08/10 13:13:18;;;;;;;4.25;1.40;;;;;;;;;;5030217;28;20041;-63
2022/08/10 13:15:45;;;;;;;1.48;1.35;;;;;;;;;;5029155;28;20044;-63
2022/08/10 13:18:12;;;;;;;2.17;1.52;;;;;;;;;;5012698;28;20048;-63
2022/08/10 13:20:40;;;;;;;3.25;1.50;;;;;;;;;;5031250;28;20040;-63
2022/08/10 13:23:15;;;;;;;2.20;1.35;;;;;;;;;;5014267;28;20053;-63
2022/08/10 13:25:44;;;;;;;4.53;1.42;;;;;;;;;;5025874;28;20056;-63
2022/08/10 13:28:11;;;;;;;2.58;1.30;;;;;;;;;;5028798;28;20033;-63
2022/08/10 13:30:39;;;;;;;3.85;1.58;;;;;;;;;;5030749;28;20038;-63
2022/08/10 13:33:10;;;;;;;3.42;1.50;;;;;;;;;;5031003;28;20479;-63
2022/08/10 13:35:37;;;;;;;3.25;1.35;;;;;;;;;;5024226;28;20037;-63
2022/08/10 13:38:06;;;;;;;3.17;1.40;;;;;;;;;;5030874;28;20040;-63
2022/08/10 13:40:33;;;;;;;2.70;1.20;;;;;;;;;;5029579;28;20048;-63
2022/08/10 13:43:00;;;;;;;3.42;1.40;;;;;;;;;;5031072;28;20091;-63
2022/08/10 13:45:27;;;;;;;3.03;1.50;;;;;;;;;;5028123;28;20095;-63
2022/08/10 13:48:14;;;;;;;3.22;1.67;;;;;;;;;;5030376;28;20079;-63
2022/08/10 13:50:41;;;;;;;3.20;1.40;;;;;;;;;;5029842;28;20407;-63
2022/08/10 13:53:11;;;;;;;1.40;1.30;;;;;;;;;;5031319;28;20412;-63
2022/08/10 13:55:40;;;;;;;3.80;1.23;;;;;;;;;;5004908;28;20525;-63
2022/08/10 13:58:07;;;;;;;2.42;1.33;;;;;;;;;;5030423;28;20495;-63
2022/08/10 14:00:36;;;;;;;3.40;1.33;;;;;;;;;;5006179;28;20439;-63
2022/08/10 14:03:15;;;;;;;1.88;1.30;;;;;;;;;;5025778;28;20037;-63
2022/08/10 14:05:49;;;;;;;2.63;1.95;;;;;;;;;;5029332;28;20036;-63
2022/08/10 14:08:19;;;;;;;2.33;1.45;;;;;;;;;;5029911;28;20384;-63
2022/08/10 14:10:46;;;;;;;4.13;1.33;;;;;;;;;;5028952;28;20376;-63
2022/08/10 14:13:14;;;;;;;2.40;1.30;;;;;;;;;;5025103;28;20492;-63
2022/08/10 14:15:42;;;;;;;2.78;1.70;;;;;;;;;;5028670;28;20029;-63
2022/08/10 14:18:09;;;;;;;3.67;1.60;;;;;;;;;;5029907;28;20042;-64
2022/08/10 14:20:36;;;;;;;2.38;1.50;;;;;;;;;;5029492;28;20048;-64
2022/08/10 14:23:12;;;;;;;2.83;1.63;;;;;;;;;;5031140;28;20125;-63
2022/08/10 14:25:53;;;;;;;2.35;1.40;;;;;;;;;;5011981;28;20411;-64
2022/08/10 14:28:25;;;;;;;4.43;1.92;;;;;;;;;;5029801;28;20044;-64
2022/08/10 14:31:00;;;;;;;8.55;1.60;;;;;;;;;;5028632;28;20036;-63
2022/08/10 14:33:26;;;;;;;3.15;1.50;;;;;;;;;;5010976;28;20049;-63
2022/08/10 14:35:53;;;;;;;2.17;1.25;;;;;;;;;;5030990;28;20120;-64
2022/08/10 14:38:21;;;;;;;1.88;1.30;;;;;;;;;;5029903;28;20065;-63
2022/08/10 14:40:50;;;;;;;2.63;1.52;;;;;;;;;;5027800;28;20041;-64
2022/08/10 14:43:18;;;;;;;3.35;1.58;;;;;;;;;;5027713;28;20029;-62
2022/08/10 14:45:47;;;;;;;3.67;1.20;;;;;;;;;;5029472;28;20542;-63
2022/08/10 14:48:15;;;;;;;1.90;1.55;;;;;;;;;;5026538;28;20718;-63
2022/08/10 14:50:41;;;;;;;2.60;1.45;;;;;;;;;;5022176;28;20109;-63
2022/08/10 14:53:09;;;;;;;2.58;1.33;;;;;;;;;;5029717;28;20068;-63
2022/08/10 14:55:36;;;;;;;3.08;1.25;;;;;;;;;;5027433;28;20427;-64
2022/08/10 14:58:02;;;;;;;3.15;1.25;;;;;;;;;;5032251;28;20132;-64
2022/08/10 15:00:29;;;;;;;4.45;1.30;;;;;;;;;;5031909;28;20119;-64